Webcam Flughafen St.Gallen-Altenrhein

Live-Bilder und Zeitraffer LSZR / ACH.

 

Live aus Altenrhein
LIVE
LSZR 031720Z 33003KT 9999 BKN080 20/12 Q1020 NOSIG RMK N
Zeitraffer heute
2020-07-03 00:14:14
LSZR 022150Z AUTO 25005KT 200V290 9999 BKN065 20/12 Q1017